Wild Boar Gully, Santa Catalina Island Weather observations

Data are for 10 minute period ending at time listed.
 Day   Time   Solar   Ave.   Ave.  Ave.  Vector    Max.   Stn.    Total
  of    of     Rad.   Air    Rel.  Wind   Wind     Wind   Baro.  Precip.
Year   Day            Temp.  Hum.  Speed  Dir.     Gust   Pres.         
2014   (PST)   W/m2    F      %     mph   deg.      mph    mb.     in.  
------------------------------------------------------------------------
 330    7:50  147.0    74   36.8     2    119.3     4.2    999.0   0.00  
 330    8:00  171.0    72   39.1     1    258.4     2.4    999.0   0.00  
 330    8:10  195.0    71   43.9     2    256.3     2.4    999.0   0.00  
 330    8:20  219.0    72   40.3     1    255.2     1.8    999.0   0.00  
 330    8:30  243.0    72   42.1     1    238.3     1.8    999.0   0.00  
 330    8:40  266.0    72   43.9     1    257.2     2.4    999.0   0.00  
 330    8:50  288.0    72   47.5     2    241.7     2.4    999.0   0.00  
 330    9:00  310.0    73   40.5     2    233.1     3.0    999.0   0.00  
 330    9:10  331.0    73   30.0     3    221.3     4.2    999.0   0.00  
 330    9:20  351.0    73   33.0     2    235.3     3.6    999.0   0.00  
 330    9:30  369.0    74   38.3     2    228.0     3.6    999.0   0.00  
 330    9:40  387.0    74   42.7     2    242.2     3.6    999.0   0.00  
 330    9:50  404.0    76   42.4     1    236.9     3.0    999.0   0.00  
 330   10:00  420.0    77   40.6     2    222.6     3.6    999.0   0.00  
 330   10:10  435.0    77   38.2     2    232.3     3.6    999.0   0.00  
 330   10:20  446.0    76   41.9     3    224.7     4.2    999.0   0.00  
 330   10:30  458.0    77   39.9     3    218.3     3.6    999.0   0.00  
 330   10:40  468.0    76   33.9     3    231.4     4.2    999.0   0.00  
 330   10:50  477.0    76   33.7     3    233.0     4.8    999.0   0.00  
 330   11:00  484.0    76   43.5     3    233.1     4.8    999.0   0.00  
 330   11:10  490.0    76   41.4     3    220.7     5.4    999.0   0.00  
 330   11:20  496.0    77   39.8     3    234.6     5.4    999.0   0.00  
 330   11:30  498.0    77   39.1     4    240.0     5.4    999.0   0.00  
 330   11:40  501.0    77   35.2     3    228.9     4.8    999.0   0.00  
 330   11:50  501.0    79   33.6     4    233.0     5.4    999.0   0.00  
 330   12:00  499.0    79   31.6     4    217.9     6.0    999.0   0.00  
 330   12:10  498.0    79   26.4     3    235.9     4.8    999.0   0.00  
 330   12:20  494.0    78   32.4     4    234.8     6.6    999.0   0.00  
 330   12:30  488.0    76   35.4     3    250.2     4.8    999.0   0.00  
 330   12:40  482.0    77   36.3     4    253.0     6.0    999.0   0.00  
 330   12:50  473.0    77   36.9     4    252.5     6.0    999.0   0.00  
 330   13:00  464.0    78   36.2     3    243.5     4.8    999.0   0.00  
 330   13:10  453.0    79   36.8     3    230.8     4.8    999.0   0.00  
 330   13:20  442.0    80   35.8     2    255.9     4.2    999.0   0.00  
 330   13:30  429.0    82   35.2     3    234.7     5.4    999.0   0.00  
 330   13:40  413.0    80   36.6     4    238.8     6.0    999.0   0.00  
 330   13:50  397.0    80   34.5     3    232.3     6.0    999.0   0.00  
 330   14:00  380.0    80   34.8     4    234.0     6.0    999.0   0.00  
 330   14:10  362.0    80   33.2     4    233.8     6.6    999.0   0.00  
 330   14:20  344.0    81   30.5     4    256.8     6.6    999.0   0.00  
 330   14:30  324.0    81   31.5     4    241.1     7.8    999.0   0.00  
 330   14:40  303.0    81   31.2     4    243.8     7.2    999.0   0.00  
 330   14:50  280.0    81   33.4     4    226.8     6.6    999.0   0.00  
 330   15:00  258.0    82   33.3     2    124.4     6.6    999.0   0.00  
 330   15:10  235.0    82   34.3     3    133.6     7.8    999.0   0.00  
 330   15:20  211.0    83   35.7     2    166.5     4.8    999.0   0.00  
 330   15:30  187.0    82   36.5     4    247.5     6.0    999.0   0.00  
 330   15:40  163.0    82   36.0     2    207.2     3.6    999.0   0.00  
 330   15:50  139.0    85   34.2     1    210.0     3.6    999.0   0.00  
 330   16:00  116.0    82   41.1     2    157.6     4.8    999.0   0.00  
 330   16:10   89.0    81   41.8     2    249.1     3.6    999.0   0.00  
 330   16:20   57.0    81   45.8     2    257.0     3.6    999.0   0.00  
 330   16:30   34.0    80   43.2     1     57.4     1.8    999.0   0.00  
 330   16:40   17.0    81   41.6     1    263.8     3.0    999.0   0.00  
 330   16:50    7.0    80   37.1     1     65.6     2.4    999.0   0.00  
 330   17:00    2.0    81   25.5     2     32.2     3.6    999.0   0.00  
 330   17:10    0.0    80   23.5     3     60.6     4.8    999.0   0.00  
 330   17:20    0.0    80   21.1     5     29.5     8.4    999.0   0.00  
 330   17:30    0.0    80   20.9     5     21.6     9.6    999.0   0.00  
 330   17:40    0.0    80   20.8     7     28.5     9.6    999.0   0.00  
 330   17:50    0.0    81   20.4     5     30.2     9.6    999.0   0.00  
 330   18:00    0.0    81   20.4     6     30.1    11.3    999.0   0.00  
 330   18:10    0.0    83   20.3     3     55.5    10.2    999.0   0.00  
 330   18:20    0.0    81   21.6     2     44.4     3.6    999.0   0.00  
 330   18:30    0.0    80   21.6     5     37.6    10.2    999.0   0.00  
 330   18:40    0.0    81   20.7     6     34.2    10.2    999.0   0.00  
 330   18:50    0.0    80   21.0     6     32.3     9.6    999.0   0.00  
 330   19:00    0.0    81   20.9     5     18.8     9.0    999.0   0.00  
 330   19:10    0.0    80   21.1     4     26.0     7.8    999.0   0.00  
 330   19:20    0.0    80   21.2     3     22.1     6.6    999.0   0.00  
 330   19:30    0.0    81   21.2     2     39.8     4.2    999.0   0.00  
 330   19:40    0.0    82   21.0     1     36.7     3.0    999.0   0.00  
 330   19:50    0.0    82   21.4     2     25.7     4.8    999.0   0.00  
 330   20:00    0.0    82   21.4     2     12.5     3.0    999.0   0.00  
 330   20:10    0.0    81   21.8     2     52.3     6.0    999.0   0.00  
 330   20:20    0.0    82   21.0     2     53.6     3.6    999.0   0.00  
 330   20:30    0.0    81   21.5     2     30.9     4.2    999.0   0.00  
 330   20:40    0.0    80   21.9     3     37.9     5.4    999.0   0.00  
 330   20:50    0.0    80   22.0     6     33.3     9.6    999.0   0.00  
 330   21:00    0.0    80   21.7     8     35.5    10.8    999.0   0.00  
 330   21:10    0.0    79   22.1     6     31.0     9.0    999.0   0.00  
 330   21:20    0.0    79   22.0     5     40.7     9.0    999.0   0.00  
 330   21:30    0.0    79   21.8     3     62.4     5.4    999.0   0.00  
 330   21:40    0.0    79   21.6     3     49.2     6.6    999.0   0.00  
 330   21:50    0.0    79   21.7     3     30.6     5.4    999.0   0.00  
 330   22:00    0.0    79   21.5     2     45.5     4.2    999.0   0.00  
 330   22:10    0.0    80   21.3     4     52.9     6.0    999.0   0.00  
 330   22:20    0.0    81   20.7     4     48.2     5.4    999.0   0.00  
 330   22:30    0.0    80   21.2     3     63.1     4.2    999.0   0.00  
 330   22:40    0.0    78   21.7     2     79.7     3.6    999.0   0.00  
 330   22:50    0.0    78   21.8     3    107.7     4.8    999.0   0.00  
 330   23:00    0.0    78   21.7     3     73.1     4.2    999.0   0.00  
 330   23:10    0.0    79   21.5     2    107.0     3.6    999.0   0.00  
 330   23:20    0.0    78   21.9     4     39.6     7.2    999.0   0.00  
 330   23:30    0.0    78   22.0     3     47.2     5.4    999.0   0.00  
 330   23:40    0.0    77   22.3     4     53.2     5.4    999.0   0.00  
 330   23:50    0.0    78   22.1     3     65.9     5.4    999.0   0.00  
 331    0:00    0.0    78   22.1     4     43.0     7.2    999.0   0.00  
 331    0:10    0.0    79   21.6     5     61.0     7.8    999.0   0.00  
 331    0:20    0.0    80   21.1     3     53.1     6.6    999.0   0.00  
 331    0:30    0.0    80   20.9     3     35.3     7.2    999.0   0.00  
 331    0:40    0.0    79   21.3     4     42.9     6.6    999.0   0.00  
 331    0:50    0.0    77   22.0     3     62.5     4.8    999.0   0.00  
 331    1:00    0.0    79   21.4     3     42.2     5.4    999.0   0.00  
 331    1:10    0.0    78   21.4     2     53.6     5.4    999.0   0.00  
 331    1:20    0.0    78   21.4     2     70.4     4.2    999.0   0.00  
 331    1:30    0.0    78   21.3     3     67.4     4.8    999.0   0.00  
 331    1:40    0.0    78   21.5     4     51.5     6.0    999.0   0.00  
 331    1:50    0.0    78   21.6     4     39.6     5.4    999.0   0.00  
 331    2:00    0.0    78   21.6     4     30.2     7.8    999.0   0.00  
 331    2:10    0.0    79   20.9     5     36.9     8.4    999.0   0.00  
 331    2:20    0.0    78   21.1     3     25.6     5.4    999.0   0.00  
 331    2:30    0.0    79   20.9     3     32.8     4.8    999.0   0.00  
 331    2:40    0.0    78   21.2     3     40.5     4.8    999.0   0.00  
 331    2:50    0.0    78   21.5     3     34.6     6.0    999.0   0.00  
 331    3:00    0.0    78   21.3     4     36.6     6.6    999.0   0.00  
 331    3:10    0.0    78   21.5     3     43.5     5.4    999.0   0.00  
 331    3:20    0.0    77   21.7     3     38.5     6.0    999.0   0.00  
 331    3:30    0.0    76   22.2     3     55.5     4.8    999.0   0.00  
 331    3:40    0.0    76   22.1     4     90.3     6.0    999.0   0.00  
 331    3:50    0.0    77   21.5     6     83.2     7.2    999.0   0.00  
 331    4:00    0.0    77   21.4     4     58.8     7.2    999.0   0.00  
 331    4:10    0.0    77   21.4     4     30.6     6.6    999.0   0.00  
 331    4:20    0.0    78   20.9     4     36.2     7.2    999.0   0.00  
 331    4:30    0.0    78   20.7     6     49.6     8.4    999.0   0.00  
 331    4:40    0.0    78   21.0     5     43.4     7.8    999.0   0.00  
 331    4:50    0.0    78   21.1     4     45.6     6.6    999.0   0.00  
 331    5:00    0.0    77   21.4     3     56.2     4.8    999.0   0.00  
 331    5:10    0.0    77   21.5     2     61.6     4.2    999.0   0.00  
 331    5:20    0.0    77   21.5     3     34.3     4.8    999.0   0.00  
 331    5:30    0.0    77   21.7     2     49.5     4.8    999.0   0.00  
 331    5:40    0.0    77   21.6     2     63.0     4.8    999.0   0.00  
 331    5:50    0.0    76   21.9     2     60.7     3.6    999.0   0.00  
 331    6:00    0.0    76   22.0     4     40.3     5.4    999.0   0.00  
 331    6:10    0.0    77   21.9     3     46.2     4.8    999.0   0.00  
 331    6:20    0.0    79   21.0     3     44.9     5.4    999.0   0.00  
 331    6:30    0.0    78   21.5     3     49.8     4.8    999.0   0.00  
 331    6:40    3.0    78   21.6     3     43.5     4.8    999.0   0.00  
 331    6:50    6.0    77   21.9     2     50.6     4.2    999.0   0.00  
 331    7:00   20.0    78   21.5     2     47.4     4.8    999.0   0.00  
 331    7:10   42.0    79   21.2     2     76.0     3.0    999.0   0.00  
 331    7:20   70.0    80   20.6     1     78.6     3.0    999.0   0.00  
 331    7:30   99.0    82   20.2     1     96.3     1.2    999.0   0.00  
 331    7:40  123.0    82   20.1     1     55.9     1.8    999.0   0.00  

Return to Wild Boar Gully graphs page.


Western Regional Climate Center,wrcc@dri.edu